createdAt,value
2018-01-26T00:00:12.877Z,6.62
2018-01-26T00:00:44.509Z,6.62
2018-01-26T00:01:16.139Z,6.62
2018-01-26T00:01:47.743Z,6.62
2018-01-26T00:02:19.375Z,6.62
2018-01-26T00:02:50.993Z,6.62
2018-01-26T00:03:22.631Z,6.62
2018-01-26T00:03:54.281Z,6.62
2018-01-26T00:04:25.913Z,6.62
2018-01-26T00:04:57.545Z,6.62
2018-01-26T00:05:29.199Z,6.62
2018-01-26T00:06:00.839Z,6.62
2018-01-26T00:06:32.453Z,6.62
2018-01-26T00:07:04.104Z,6.62
2018-01-26T00:07:35.731Z,6.62
2018-01-26T00:08:07.395Z,6.06
2018-01-26T00:08:39.016Z,6.06
2018-01-26T00:09:10.625Z,6.06
2018-01-26T00:09:42.247Z,6.06
2018-01-26T00:10:13.873Z,6.06
2018-01-26T00:10:45.495Z,6.06
2018-01-26T00:11:17.151Z,6.06
2018-01-26T00:11:48.803Z,6.06
2018-01-26T00:12:20.441Z,6.06
2018-01-26T00:12:52.051Z,6.06
2018-01-26T00:13:23.672Z,6.06
2018-01-26T00:13:55.277Z,6.06
2018-01-26T00:14:26.903Z,6.06
2018-01-26T00:14:58.519Z,6.06
2018-01-26T00:15:30.143Z,6.06
2018-01-26T00:16:01.913Z,6.06
2018-01-26T00:16:33.539Z,6.06
2018-01-26T00:17:05.159Z,6.06
2018-01-26T00:17:36.767Z,6.06
2018-01-26T00:18:08.399Z,6.06
2018-01-26T00:18:40.061Z,6.06
2018-01-26T00:19:11.673Z,6.06
2018-01-26T00:19:43.265Z,6.06
2018-01-26T00:20:14.890Z,6.06
2018-01-26T00:20:46.505Z,6.06
2018-01-26T00:21:18.137Z,6.06
2018-01-26T00:21:49.797Z,6.06
2018-01-26T00:22:21.437Z,6.06
2018-01-26T00:22:53.089Z,6.06
2018-01-26T00:23:24.703Z,6.06
2018-01-26T00:23:56.319Z,6.06
2018-01-26T00:24:27.948Z,6.06
2018-01-26T00:24:59.553Z,6.06
2018-01-26T00:25:31.165Z,6.06
2018-01-26T00:26:02.813Z,6.06
2018-01-26T00:26:34.443Z,6.06
2018-01-26T00:27:06.061Z,6.06
2018-01-26T00:27:37.664Z,6.06
2018-01-26T00:28:09.287Z,6.06
2018-01-26T00:28:40.898Z,6.06
2018-01-26T00:29:12.547Z,6.06
2018-01-26T00:29:44.169Z,6.06
2018-01-26T00:30:15.835Z,6.06
2018-01-26T00:30:47.465Z,6.06
2018-01-26T00:31:19.057Z,6.06
2018-01-26T00:31:50.674Z,6.06
2018-01-26T00:32:22.335Z,6.06
2018-01-26T00:32:53.947Z,6.06
2018-01-26T00:33:25.564Z,6.06
2018-01-26T00:33:57.186Z,6.06
2018-01-26T00:34:28.784Z,6.06
2018-01-26T00:35:00.395Z,6.06
2018-01-26T00:35:32.013Z,6.06
2018-01-26T00:36:03.627Z,6.06
2018-01-26T00:36:35.262Z,6.06
2018-01-26T00:37:06.869Z,6.06
2018-01-26T00:37:38.478Z,6.06
2018-01-26T00:38:10.111Z,6.06
2018-01-26T00:38:41.733Z,6.06
2018-01-26T00:39:13.331Z,6.06
2018-01-26T00:39:44.947Z,6.06
2018-01-26T00:40:16.563Z,6.06
2018-01-26T00:40:48.179Z,6.06
2018-01-26T00:41:19.793Z,6.06
2018-01-26T00:41:51.406Z,6.06
2018-01-26T00:42:23.015Z,6.06
2018-01-26T00:42:54.673Z,6.06
2018-01-26T00:43:26.277Z,6.06
2018-01-26T00:43:57.901Z,6.06
2018-01-26T00:44:29.537Z,6.06
2018-01-26T00:45:01.145Z,6.06
2018-01-26T00:45:32.761Z,6.06
2018-01-26T00:46:04.371Z,6.06
2018-01-26T00:46:35.979Z,6.06
2018-01-26T00:47:07.582Z,6.06
2018-01-26T00:47:39.207Z,6.06
2018-01-26T00:48:10.829Z,6.06
2018-01-26T00:48:42.448Z,6.06
2018-01-26T00:49:14.100Z,6.06
2018-01-26T00:49:45.719Z,6.06
2018-01-26T00:50:17.353Z,6.06
2018-01-26T00:50:48.979Z,6.06
2018-01-26T00:51:20.625Z,6.06
2018-01-26T00:51:52.275Z,6.06
2018-01-26T00:52:23.885Z,6.06
2018-01-26T00:52:55.505Z,6.06
2018-01-26T00:53:27.175Z,6.06
2018-01-26T00:53:58.781Z,6.06
2018-01-26T00:54:30.390Z,6.06
2018-01-26T00:55:02.014Z,6.06
2018-01-26T00:55:33.638Z,6.06
2018-01-26T00:56:05.251Z,6.06
2018-01-26T00:56:36.903Z,6.06
2018-01-26T00:57:08.525Z,6.06
2018-01-26T00:57:40.131Z,6.06
2018-01-26T00:58:11.746Z,6.06
2018-01-26T00:58:43.393Z,6.06
2018-01-26T00:59:15.005Z,6.06
2018-01-26T00:59:46.626Z,6.06
2018-01-26T01:00:18.301Z,6.06
2018-01-26T01:00:49.955Z,6.06
2018-01-26T01:01:21.611Z,6.06
2018-01-26T01:01:53.263Z,6.06
2018-01-26T01:02:24.885Z,6.06
2018-01-26T01:02:56.504Z,6.06
2018-01-26T01:03:28.103Z,6.06
2018-01-26T01:03:59.775Z,6.06
2018-01-26T01:04:31.399Z,6.06
2018-01-26T01:05:03.046Z,6.06
2018-01-26T01:05:34.649Z,6.06
2018-01-26T01:06:06.329Z,6.06
2018-01-26T01:06:37.958Z,6.06
2018-01-26T01:07:09.556Z,6.06
2018-01-26T01:07:41.183Z,6.06
2018-01-26T01:08:12.832Z,6.06
2018-01-26T01:18:34.516Z,6.06
2018-01-26T01:19:06.151Z,6.06
2018-01-26T01:19:37.758Z,6.06
2018-01-26T01:20:09.393Z,6.06
2018-01-26T01:20:40.999Z,6.06
2018-01-26T01:21:12.648Z,6.06
2018-01-26T01:21:44.271Z,6.06
2018-01-26T01:22:15.904Z,6.06
2018-01-26T01:22:47.511Z,6.06
2018-01-26T01:23:19.127Z,6.06
2018-01-26T01:23:50.763Z,6.06
2018-01-26T01:24:22.371Z,6.06
2018-01-26T01:24:53.991Z,6.06
2018-01-26T01:25:25.627Z,6.06
2018-01-26T01:25:57.235Z,6.06
2018-01-26T01:26:28.845Z,6.06
2018-01-26T01:27:00.483Z,6.06
2018-01-26T01:27:32.105Z,6.06
2018-01-26T01:28:03.712Z,6.06
2018-01-26T01:28:35.324Z,6.06
2018-01-26T01:29:06.950Z,6.06
2018-01-26T01:29:38.573Z,6.06
2018-01-26T01:30:10.223Z,6.06
2018-01-26T01:30:41.838Z,6.06
2018-01-26T01:31:13.467Z,6.06
2018-01-26T01:31:45.075Z,6.06
2018-01-26T01:32:16.703Z,6.06
2018-01-26T01:32:48.329Z,6.06
2018-01-26T01:33:19.939Z,6.06
2018-01-26T01:33:51.561Z,6.06
2018-01-26T01:34:23.187Z,6.06
2018-01-26T01:34:54.797Z,6.06
2018-01-26T01:35:26.409Z,6.06
2018-01-26T01:35:58.027Z,6.06
2018-01-26T01:36:29.641Z,6.06
2018-01-26T01:37:01.243Z,6.06
2018-01-26T01:37:32.859Z,6.06
2018-01-26T01:38:04.467Z,6.06
2018-01-26T01:38:36.078Z,6.06
2018-01-26T01:39:07.703Z,6.06
2018-01-26T01:39:39.327Z,6.06
2018-01-26T01:40:10.979Z,6.06
2018-01-26T01:40:42.579Z,6.06
2018-01-26T01:41:14.174Z,6.06
2018-01-26T01:41:45.788Z,6.06
2018-01-26T01:42:17.401Z,6.06
2018-01-26T01:42:49.033Z,6.06
2018-01-26T01:43:20.660Z,6.06
2018-01-26T01:43:52.291Z,6.06
2018-01-26T01:44:23.899Z,6.06
2018-01-26T01:44:55.551Z,6.06
2018-01-26T01:45:27.165Z,6.06
2018-01-26T01:45:58.793Z,6.06
2018-01-26T01:46:30.453Z,6.06
2018-01-26T01:47:02.063Z,6.06
2018-01-26T01:47:33.673Z,6.06
2018-01-26T01:48:05.289Z,6.06
2018-01-26T01:48:36.928Z,6.06
2018-01-26T01:49:15.753Z,6.06
2018-01-26T01:49:47.365Z,6.06
2018-01-26T01:50:19.007Z,6.06
2018-01-26T01:50:50.633Z,6.06
2018-01-26T01:51:22.255Z,6.06
2018-01-26T01:51:53.909Z,6.06
2018-01-26T01:52:25.523Z,6.06
2018-01-26T01:52:57.141Z,6.06
2018-01-26T01:53:28.821Z,6.06
2018-01-26T01:54:00.431Z,6.06
2018-01-26T01:54:32.081Z,6.06
2018-01-26T01:55:03.707Z,6.06
2018-01-26T01:55:35.343Z,6.06
2018-01-26T01:56:06.961Z,6.06
2018-01-26T01:56:38.562Z,6.06
2018-01-26T01:57:10.176Z,6.06
2018-01-26T01:57:41.793Z,6.06
2018-01-26T01:58:13.429Z,6.06
2018-01-26T01:58:45.047Z,3.50
2018-01-26T01:59:16.650Z,3.50
2018-01-26T01:59:48.261Z,3.50
2018-01-26T02:00:19.877Z,3.50
2018-01-26T02:00:51.564Z,3.50
2018-01-26T02:01:23.191Z,3.50
2018-01-26T02:01:54.831Z,3.50
2018-01-26T02:02:26.457Z,3.50
2018-01-26T02:02:58.075Z,3.50
2018-01-26T02:03:29.708Z,3.50
2018-01-26T02:04:01.329Z,3.50
2018-01-26T02:04:32.951Z,3.50
2018-01-26T02:05:04.585Z,3.50
2018-01-26T02:05:36.265Z,3.50
2018-01-26T02:06:07.899Z,3.50
2018-01-26T02:06:39.539Z,3.50
2018-01-26T02:07:11.185Z,3.50
2018-01-26T02:07:42.796Z,3.50
2018-01-26T02:08:14.440Z,3.50
2018-01-26T02:08:46.054Z,3.50
2018-01-26T02:09:17.683Z,3.50
2018-01-26T02:09:49.321Z,3.50
2018-01-26T02:10:20.925Z,3.50
2018-01-26T02:10:52.536Z,3.50
2018-01-26T02:11:24.161Z,3.50
2018-01-26T02:11:55.771Z,3.50
2018-01-26T02:12:27.377Z,3.50
2018-01-26T02:12:59.000Z,3.50
2018-01-26T02:13:30.629Z,3.50
2018-01-26T02:14:02.252Z,3.50
2018-01-26T02:14:33.871Z,3.50
2018-01-26T02:15:05.526Z,3.50
2018-01-26T02:15:37.144Z,3.50
2018-01-26T02:16:08.777Z,3.50
2018-01-26T02:16:40.423Z,3.50
2018-01-26T02:17:12.064Z,3.50
2018-01-26T02:17:43.685Z,3.50
2018-01-26T02:18:15.325Z,3.50
2018-01-26T02:18:46.957Z,3.50
2018-01-26T02:19:18.567Z,3.50
2018-01-26T02:19:50.181Z,3.50
2018-01-26T02:20:21.799Z,3.50
2018-01-26T02:20:53.407Z,3.50
2018-01-26T02:21:25.043Z,3.50
2018-01-26T02:21:56.705Z,3.50
2018-01-26T02:22:28.343Z,3.50
2018-01-26T02:23:00.015Z,3.50
2018-01-26T02:23:31.641Z,3.50
2018-01-26T02:24:03.257Z,3.50
2018-01-26T02:24:34.903Z,3.50
2018-01-26T02:25:06.530Z,3.50
2018-01-26T02:25:38.152Z,3.50
2018-01-26T02:26:09.791Z,3.50
2018-01-26T02:26:41.423Z,3.50
2018-01-26T02:27:13.053Z,3.50
2018-01-26T02:27:44.673Z,3.50
2018-01-26T02:28:16.339Z,3.50
2018-01-26T02:28:47.960Z,3.50
2018-01-26T02:29:19.572Z,3.50
2018-01-26T02:29:51.495Z,3.50
2018-01-26T02:30:23.095Z,3.50
2018-01-26T02:30:54.734Z,3.50
2018-01-26T02:31:26.359Z,3.50
2018-01-26T02:31:57.995Z,3.50
2018-01-26T02:32:29.643Z,3.50
2018-01-26T02:33:01.278Z,3.50
2018-01-26T02:33:32.883Z,3.50
2018-01-26T02:34:04.507Z,3.50
2018-01-26T02:34:36.125Z,3.50
2018-01-26T02:35:07.747Z,3.50
2018-01-26T02:35:39.351Z,3.50
2018-01-26T02:36:11.002Z,3.50
2018-01-26T02:36:42.647Z,3.50
2018-01-26T02:37:14.252Z,3.50
2018-01-26T02:37:45.895Z,3.50
2018-01-26T02:38:17.517Z,3.50
2018-01-26T02:38:49.135Z,3.50
2018-01-26T02:39:20.761Z,3.50
2018-01-26T02:39:52.369Z,3.50
2018-01-26T02:40:23.985Z,3.50
2018-01-26T02:40:55.665Z,3.50
2018-01-26T02:41:27.229Z,3.19
2018-01-26T02:41:58.841Z,3.19
2018-01-26T02:42:30.465Z,3.19
2018-01-26T02:43:02.111Z,3.19
2018-01-26T02:43:33.736Z,3.19
2018-01-26T02:44:05.432Z,3.19
2018-01-26T02:44:37.015Z,3.19
2018-01-26T02:45:08.661Z,3.19
2018-01-26T02:45:40.303Z,3.19
2018-01-26T02:46:11.943Z,3.19
2018-01-26T02:46:43.589Z,3.19
2018-01-26T02:47:15.203Z,3.19
2018-01-26T02:47:46.812Z,3.19
2018-01-26T02:48:18.437Z,3.19
2018-01-26T02:48:50.081Z,3.19
2018-01-26T02:49:21.693Z,3.19
2018-01-26T02:49:53.311Z,3.19
2018-01-26T02:50:24.937Z,3.19
2018-01-26T02:50:56.567Z,3.19
2018-01-26T02:51:28.209Z,3.19
2018-01-26T02:51:59.832Z,3.19
2018-01-26T02:52:31.465Z,3.19
2018-01-26T02:53:03.073Z,3.19
2018-01-26T02:53:36.278Z,3.19
2018-01-26T02:54:07.893Z,3.19
2018-01-26T02:54:39.508Z,3.19
2018-01-26T02:55:11.159Z,3.19
2018-01-26T02:55:42.801Z,3.19
2018-01-26T02:56:14.427Z,3.19
2018-01-26T02:56:46.030Z,3.19
2018-01-26T02:57:17.641Z,3.19
2018-01-26T02:57:49.258Z,3.19
2018-01-26T02:58:20.878Z,3.19
2018-01-26T02:58:52.520Z,3.19
2018-01-26T02:59:24.117Z,3.19
2018-01-26T02:59:55.735Z,3.19
2018-01-26T03:00:27.346Z,2.81
2018-01-26T03:00:58.954Z,2.81
2018-01-26T03:01:30.567Z,2.81
2018-01-26T03:02:02.227Z,2.81
2018-01-26T03:02:33.845Z,2.81
2018-01-26T03:03:05.450Z,2.81
2018-01-26T03:03:37.075Z,2.81
2018-01-26T03:04:08.696Z,2.81
2018-01-26T03:04:40.309Z,2.81
2018-01-26T03:05:11.929Z,2.81
2018-01-26T03:05:43.549Z,2.81
2018-01-26T03:06:15.175Z,2.81
2018-01-26T03:06:46.795Z,2.81
2018-01-26T03:07:18.445Z,2.81
2018-01-26T03:07:50.051Z,2.81
2018-01-26T03:08:21.707Z,2.81
2018-01-26T03:08:53.351Z,2.81
2018-01-26T03:09:24.961Z,2.81
2018-01-26T03:09:56.601Z,2.81
2018-01-26T03:10:28.224Z,2.81
2018-01-26T03:10:59.855Z,2.81
2018-01-26T03:11:31.485Z,2.81
2018-01-26T03:12:03.093Z,2.81
2018-01-26T03:12:34.713Z,2.81
2018-01-26T03:13:06.321Z,2.81
2018-01-26T03:13:38.013Z,2.81
2018-01-26T03:14:09.619Z,2.81
2018-01-26T03:14:41.257Z,2.81
2018-01-26T03:15:12.880Z,2.81
2018-01-26T03:15:44.569Z,2.81
2018-01-26T03:16:16.207Z,2.81
2018-01-26T03:16:47.841Z,2.81
2018-01-26T03:17:19.486Z,2.81
2018-01-26T03:17:51.103Z,2.81
2018-01-26T03:18:22.718Z,2.81
2018-01-26T03:18:54.353Z,2.81
2018-01-26T03:19:26.007Z,2.81
2018-01-26T03:19:57.617Z,2.81
2018-01-26T03:20:29.237Z,2.81
2018-01-26T03:21:00.854Z,2.81
2018-01-26T03:21:32.453Z,2.81
2018-01-26T03:22:04.075Z,2.81
2018-01-26T03:22:35.693Z,2.81
2018-01-26T03:23:07.333Z,2.81
2018-01-26T03:23:38.941Z,2.81
2018-01-26T03:24:10.599Z,2.81
2018-01-26T03:24:42.203Z,2.81
2018-01-26T03:25:13.839Z,2.81
2018-01-26T03:25:45.439Z,2.81
2018-01-26T03:26:17.059Z,2.81
2018-01-26T03:26:48.677Z,2.81
2018-01-26T03:27:20.309Z,2.81
2018-01-26T03:27:51.924Z,2.81
2018-01-26T03:28:23.567Z,2.81
2018-01-26T03:28:55.208Z,2.81
2018-01-26T03:29:26.827Z,2.81
2018-01-26T03:29:58.450Z,2.81
2018-01-26T03:30:30.079Z,2.81
2018-01-26T03:31:01.678Z,2.81
2018-01-26T03:31:33.290Z,2.81
2018-01-26T03:32:04.916Z,2.81
2018-01-26T03:32:36.538Z,2.81
2018-01-26T03:33:08.153Z,2.81
2018-01-26T03:33:39.813Z,2.81
2018-01-26T03:34:11.435Z,2.81
2018-01-26T03:34:43.082Z,2.81
2018-01-26T03:35:14.702Z,2.81
2018-01-26T03:35:46.326Z,2.81
2018-01-26T03:36:17.947Z,2.81
2018-01-26T03:36:49.566Z,2.81
2018-01-26T03:37:21.175Z,2.81
2018-01-26T03:37:53.103Z,2.81
2018-01-26T03:38:24.725Z,2.81
2018-01-26T03:38:56.319Z,2.81
2018-01-26T03:39:27.943Z,2.81
2018-01-26T03:39:59.567Z,2.81
2018-01-26T03:40:31.177Z,2.81
2018-01-26T03:41:02.835Z,2.81
2018-01-26T03:41:34.456Z,2.81
2018-01-26T03:42:06.079Z,2.81
2018-01-26T03:42:37.716Z,2.81
2018-01-26T03:43:09.327Z,2.81
2018-01-26T03:43:40.975Z,2.81
2018-01-26T03:44:12.601Z,2.81
2018-01-26T03:44:44.251Z,2.81
2018-01-26T03:45:15.848Z,2.81
2018-01-26T03:45:47.489Z,2.81
2018-01-26T03:46:19.121Z,2.81
2018-01-26T03:46:50.731Z,2.81
2018-01-26T03:47:22.359Z,3.06
2018-01-26T03:47:53.967Z,3.06
2018-01-26T03:48:25.591Z,3.06
2018-01-26T03:48:57.199Z,3.06
2018-01-26T03:49:28.798Z,3.06
2018-01-26T03:50:00.417Z,3.06
2018-01-26T03:50:32.021Z,3.06
2018-01-26T03:51:03.647Z,3.06
2018-01-26T03:51:35.301Z,3.06
2018-01-26T03:52:06.948Z,3.06
2018-01-26T03:52:39.618Z,3.06
2018-01-26T03:53:13.157Z,3.06
2018-01-26T03:53:44.777Z,3.06
2018-01-26T03:54:16.383Z,3.06
2018-01-26T03:54:47.992Z,3.06
2018-01-26T03:55:19.613Z,3.06
2018-01-26T03:55:51.233Z,3.06
2018-01-26T03:56:22.861Z,3.06
2018-01-26T03:56:54.465Z,3.06
2018-01-26T03:57:26.075Z,3.06
2018-01-26T03:57:57.677Z,3.06
2018-01-26T03:58:29.283Z,3.06
2018-01-26T03:59:00.920Z,3.06
2018-01-26T03:59:32.543Z,3.06
2018-01-26T04:00:04.191Z,3.06
2018-01-26T04:00:35.821Z,3.06
2018-01-26T04:01:07.460Z,3.06
2018-01-26T04:01:39.093Z,3.06
2018-01-26T04:02:10.747Z,3.06
2018-01-26T04:02:42.355Z,3.06
2018-01-26T04:03:13.978Z,3.06
2018-01-26T04:03:45.613Z,3.06
2018-01-26T04:04:17.215Z,3.06
2018-01-26T04:04:48.899Z,3.06
2018-01-26T04:05:20.527Z,3.06
2018-01-26T04:05:52.153Z,3.06
2018-01-26T04:06:23.793Z,3.06
2018-01-26T04:06:55.421Z,3.06
2018-01-26T04:07:27.043Z,3.06
2018-01-26T04:07:58.655Z,3.06
2018-01-26T04:08:30.269Z,3.06
2018-01-26T04:09:01.887Z,3.06
2018-01-26T04:09:33.527Z,3.06
2018-01-26T04:10:05.147Z,3.06
2018-01-26T04:10:36.762Z,3.06
2018-01-26T04:11:08.375Z,3.06
2018-01-26T04:11:39.989Z,3.06
2018-01-26T04:12:11.595Z,3.06
2018-01-26T04:12:43.231Z,3.06
2018-01-26T04:13:14.835Z,3.06
2018-01-26T04:13:46.437Z,3.06
2018-01-26T04:14:18.066Z,3.06
2018-01-26T04:14:49.699Z,3.06
2018-01-26T04:15:21.329Z,3.06
2018-01-26T04:15:52.955Z,3.06
2018-01-26T04:16:24.579Z,3.06
2018-01-26T04:16:56.203Z,3.06
2018-01-26T04:17:27.829Z,3.06
2018-01-26T04:17:59.476Z,2.62
2018-01-26T04:18:31.088Z,2.62
2018-01-26T04:19:02.843Z,2.62
2018-01-26T04:19:34.469Z,2.62
2018-01-26T04:20:06.074Z,2.62
2018-01-26T04:20:37.700Z,2.62
2018-01-26T04:21:09.316Z,2.62
2018-01-26T04:21:40.942Z,2.62
2018-01-26T04:22:12.583Z,2.62
2018-01-26T04:22:44.199Z,2.62
2018-01-26T04:23:15.847Z,2.62
2018-01-26T04:23:56.353Z,2.62
2018-01-26T04:24:27.969Z,2.62
2018-01-26T04:24:59.618Z,2.62
2018-01-26T04:25:31.214Z,2.62
2018-01-26T04:26:02.853Z,2.62
2018-01-26T04:26:34.469Z,2.62
2018-01-26T04:27:06.093Z,2.44
2018-01-26T04:27:37.705Z,2.44
2018-01-26T04:28:09.309Z,2.44
2018-01-26T04:28:40.951Z,2.44
2018-01-26T04:29:12.573Z,2.44
2018-01-26T04:29:44.197Z,2.44
2018-01-26T04:30:15.837Z,2.44
2018-01-26T04:30:47.447Z,2.44
2018-01-26T04:31:19.047Z,2.44
2018-01-26T04:31:50.669Z,2.44
2018-01-26T04:32:22.335Z,2.44
2018-01-26T04:32:53.978Z,2.44
2018-01-26T04:33:25.611Z,2.44
2018-01-26T04:33:57.261Z,2.44
2018-01-26T04:34:28.883Z,2.44
2018-01-26T04:35:00.503Z,2.44
2018-01-26T04:35:32.115Z,2.44
2018-01-26T04:36:03.707Z,2.44
2018-01-26T04:36:35.318Z,2.44
2018-01-26T04:37:06.921Z,2.44
2018-01-26T04:37:38.527Z,2.44
2018-01-26T04:38:10.146Z,2.44
2018-01-26T04:38:41.807Z,2.44
2018-01-26T04:39:13.425Z,2.44
2018-01-26T04:39:45.065Z,2.44
2018-01-26T04:40:16.687Z,2.44
2018-01-26T04:40:48.306Z,2.44
2018-01-26T04:41:19.913Z,2.44
2018-01-26T04:41:51.527Z,2.44
2018-01-26T04:42:23.151Z,2.44
2018-01-26T04:42:54.761Z,2.44
2018-01-26T04:43:26.389Z,2.44
2018-01-26T04:43:58.017Z,2.44
2018-01-26T04:44:29.643Z,2.44
2018-01-26T04:45:01.247Z,2.44
2018-01-26T04:45:32.881Z,2.44
2018-01-26T04:46:04.491Z,2.44
2018-01-26T04:46:36.112Z,2.44
2018-01-26T04:47:07.731Z,2.44
2018-01-26T04:47:39.772Z,2.44
2018-01-26T04:48:11.393Z,2.44
2018-01-26T04:48:42.991Z,2.44
2018-01-26T04:49:14.611Z,2.44
2018-01-26T04:49:46.270Z,2.44
2018-01-26T04:50:17.895Z,2.44
2018-01-26T04:50:49.554Z,2.44
2018-01-26T04:51:21.195Z,2.44
2018-01-26T04:51:52.803Z,2.44
2018-01-26T04:52:24.431Z,2.44
2018-01-26T04:52:56.077Z,2.44
2018-01-26T04:53:27.687Z,2.44
2018-01-26T04:53:59.318Z,2.44
2018-01-26T04:54:30.941Z,2.44
2018-01-26T04:55:02.602Z,2.44
2018-01-26T04:55:34.215Z,2.44
2018-01-26T04:56:05.858Z,2.44
2018-01-26T04:56:37.475Z,2.44
2018-01-26T04:57:09.088Z,2.44
2018-01-26T04:57:40.718Z,2.44
2018-01-26T04:58:12.335Z,2.44
2018-01-26T04:58:43.947Z,2.44
2018-01-26T04:59:15.561Z,2.44
2018-01-26T04:59:47.183Z,2.44
2018-01-26T05:00:18.789Z,2.44
2018-01-26T05:00:50.425Z,2.44
2018-01-26T05:01:22.037Z,2.69
2018-01-26T05:01:53.639Z,2.69
2018-01-26T05:02:25.263Z,2.69
2018-01-26T05:02:56.927Z,2.69
2018-01-26T05:03:28.566Z,2.69
2018-01-26T05:04:00.267Z,2.69
2018-01-26T05:04:31.907Z,2.69
2018-01-26T05:05:03.558Z,2.69
2018-01-26T05:05:35.217Z,2.69
2018-01-26T05:06:06.833Z,2.87
2018-01-26T05:06:38.468Z,2.87
2018-01-26T05:07:10.089Z,2.87
2018-01-26T05:07:41.715Z,2.87
2018-01-26T05:08:13.328Z,2.87
2018-01-26T05:08:44.945Z,2.87
2018-01-26T05:09:16.560Z,2.87
2018-01-26T05:09:48.177Z,2.87
2018-01-26T05:10:19.809Z,2.87
2018-01-26T05:10:51.413Z,2.87
2018-01-26T05:11:23.099Z,2.87
2018-01-26T05:11:54.672Z,2.87
2018-01-26T05:12:26.297Z,2.87
2018-01-26T05:12:57.937Z,2.87
2018-01-26T05:13:29.553Z,2.87
2018-01-26T05:14:01.179Z,2.87
2018-01-26T05:14:32.822Z,2.87
2018-01-26T05:15:04.429Z,2.87
2018-01-26T05:15:36.049Z,2.87
2018-01-26T05:16:07.683Z,2.87
2018-01-26T05:16:39.317Z,2.87
2018-01-26T05:17:10.933Z,2.87
2018-01-26T05:17:42.551Z,2.87
2018-01-26T05:18:14.169Z,2.87
2018-01-26T05:18:45.784Z,2.87
2018-01-26T05:19:17.403Z,2.87
2018-01-26T05:19:49.045Z,2.87
2018-01-26T05:20:20.653Z,2.87
2018-01-26T05:20:52.280Z,2.87
2018-01-26T05:21:23.890Z,2.87
2018-01-26T05:21:55.514Z,2.87
2018-01-26T05:22:27.129Z,2.87
2018-01-26T05:22:58.753Z,2.87
2018-01-26T05:23:30.363Z,2.87
2018-01-26T05:24:01.981Z,2.87
2018-01-26T05:24:33.606Z,2.87
2018-01-26T05:25:05.223Z,2.87
2018-01-26T05:25:36.836Z,2.87
2018-01-26T05:26:08.427Z,2.87
2018-01-26T05:26:40.065Z,2.87
2018-01-26T05:27:11.709Z,2.87
2018-01-26T05:27:43.309Z,2.87
2018-01-26T05:28:14.935Z,2.87
2018-01-26T05:28:46.571Z,2.87
2018-01-26T05:29:18.201Z,2.87
2018-01-26T05:29:49.834Z,2.87
2018-01-26T05:30:21.436Z,2.87
2018-01-26T05:30:53.051Z,2.87
2018-01-26T05:31:24.677Z,2.87
2018-01-26T05:31:56.331Z,2.87
2018-01-26T05:32:27.945Z,2.87
2018-01-26T05:32:59.601Z,2.87
2018-01-26T05:33:31.217Z,2.87
2018-01-26T05:34:02.857Z,2.87
2018-01-26T05:34:34.493Z,2.87
2018-01-26T05:35:06.115Z,2.87
2018-01-26T05:35:37.740Z,2.87
2018-01-26T05:36:09.367Z,2.87
2018-01-26T05:36:40.987Z,2.87
2018-01-26T05:37:12.600Z,2.87
2018-01-26T05:37:44.241Z,2.87
2018-01-26T05:38:15.846Z,2.87
2018-01-26T05:38:47.470Z,2.87
2018-01-26T05:39:19.113Z,2.87
2018-01-26T05:39:50.741Z,2.87
2018-01-26T05:40:22.376Z,2.87
2018-01-26T05:40:54.005Z,2.87
2018-01-26T05:41:25.641Z,2.87
2018-01-26T05:41:57.279Z,2.87
2018-01-26T05:42:28.923Z,2.87
2018-01-26T05:43:00.545Z,2.87
2018-01-26T05:43:32.169Z,2.87
2018-01-26T05:44:03.843Z,2.87
2018-01-26T05:44:35.459Z,2.87
2018-01-26T05:45:07.085Z,2.87
2018-01-26T05:45:38.686Z,2.87
2018-01-26T05:46:10.316Z,2.87
2018-01-26T05:46:41.966Z,2.87
2018-01-26T05:47:13.580Z,2.87
2018-01-26T05:47:45.230Z,2.87
2018-01-26T05:48:16.847Z,2.87
2018-01-26T05:48:48.475Z,2.87
2018-01-26T05:49:20.091Z,2.87
2018-01-26T05:49:51.789Z,2.87
2018-01-26T05:50:23.385Z,2.87
2018-01-26T05:50:55.003Z,2.87
2018-01-26T05:51:26.619Z,2.87
2018-01-26T05:51:58.246Z,2.87
2018-01-26T05:52:29.879Z,2.87
2018-01-26T05:53:01.485Z,2.87
2018-01-26T05:53:33.105Z,2.87
2018-01-26T05:54:04.722Z,2.87
2018-01-26T05:54:36.331Z,2.87
2018-01-26T05:55:07.947Z,2.87
2018-01-26T05:55:39.597Z,2.87
2018-01-26T05:56:11.223Z,2.87
2018-01-26T05:56:42.845Z,2.87
2018-01-26T05:57:14.463Z,2.87
2018-01-26T05:57:46.089Z,2.87
2018-01-26T05:58:17.747Z,2.87
2018-01-26T05:58:49.367Z,2.87
2018-01-26T05:59:20.985Z,2.87
2018-01-26T05:59:52.609Z,2.87
2018-01-26T06:00:24.244Z,2.87
2018-01-26T06:00:55.872Z,2.87
2018-01-26T06:01:27.499Z,2.87
2018-01-26T06:01:59.140Z,2.87
2018-01-26T06:02:30.765Z,2.87
2018-01-26T06:03:02.393Z,2.87
2018-01-26T06:03:34.015Z,2.87
2018-01-26T06:04:05.638Z,2.87
2018-01-26T06:04:37.307Z,2.87
2018-01-26T06:05:08.930Z,2.87
2018-01-26T06:05:40.631Z,2.87
2018-01-26T06:06:12.278Z,2.87
2018-01-26T06:06:43.889Z,2.87
2018-01-26T06:07:15.499Z,2.87
2018-01-26T06:07:47.123Z,2.87
2018-01-26T06:08:18.776Z,2.87
2018-01-26T06:08:50.382Z,2.87
2018-01-26T06:09:22.023Z,2.87
2018-01-26T06:09:53.640Z,2.87
2018-01-26T06:10:25.246Z,2.87
2018-01-26T06:10:56.863Z,2.87
2018-01-26T06:11:28.518Z,2.87
2018-01-26T06:12:00.139Z,2.87
2018-01-26T06:12:31.737Z,2.87
2018-01-26T06:13:03.365Z,2.87
2018-01-26T06:13:34.986Z,2.87
2018-01-26T06:14:06.616Z,2.87
2018-01-26T06:14:38.241Z,2.87
2018-01-26T06:15:09.863Z,3.19
2018-01-26T06:15:41.480Z,3.19
2018-01-26T06:16:13.099Z,3.19
2018-01-26T06:16:44.733Z,3.19
2018-01-26T06:17:16.395Z,3.19
2018-01-26T06:17:48.049Z,3.19
2018-01-26T06:18:19.699Z,3.19
2018-01-26T06:18:51.337Z,3.19
2018-01-26T06:19:22.986Z,3.19
2018-01-26T06:19:54.621Z,3.19
2018-01-26T06:20:26.239Z,3.19
2018-01-26T06:20:57.861Z,3.19
2018-01-26T06:21:29.505Z,3.19
2018-01-26T06:22:01.152Z,3.19
2018-01-26T06:22:32.780Z,3.19
2018-01-26T06:23:04.411Z,3.19
2018-01-26T06:23:36.068Z,3.19
2018-01-26T06:24:07.748Z,3.19
2018-01-26T06:24:39.404Z,3.19
2018-01-26T06:25:11.059Z,3.19
2018-01-26T06:25:42.719Z,3.19
2018-01-26T06:26:14.378Z,3.19
2018-01-26T06:26:46.005Z,3.19
2018-01-26T06:27:17.653Z,3.19
2018-01-26T06:27:49.312Z,3.19
2018-01-26T06:28:20.973Z,3.19
2018-01-26T06:28:52.602Z,3.19
2018-01-26T06:29:24.271Z,3.19
2018-01-26T06:29:55.936Z,3.19
2018-01-26T06:30:27.593Z,3.19
2018-01-26T06:30:59.260Z,3.19
2018-01-26T06:31:30.883Z,3.19
2018-01-26T06:32:02.524Z,3.19
2018-01-26T06:32:34.136Z,3.19
2018-01-26T06:33:05.775Z,3.19
2018-01-26T06:33:37.387Z,3.19
2018-01-26T06:34:09.021Z,3.19
2018-01-26T06:34:40.627Z,3.19
2018-01-26T06:35:12.247Z,3.19
2018-01-26T06:35:43.878Z,3.19
2018-01-26T06:36:15.533Z,3.19
2018-01-26T06:36:47.165Z,3.19
2018-01-26T06:37:18.793Z,3.19
2018-01-26T06:37:50.446Z,3.19
2018-01-26T06:38:22.072Z,3.19
2018-01-26T06:38:53.687Z,3.19
2018-01-26T06:39:25.328Z,3.19
2018-01-26T06:39:56.973Z,3.19
2018-01-26T06:40:28.613Z,3.19
2018-01-26T06:41:00.241Z,3.19
2018-01-26T06:41:31.873Z,3.19
2018-01-26T06:42:03.497Z,3.19
2018-01-26T06:42:35.135Z,3.19
2018-01-26T06:43:06.737Z,3.19
2018-01-26T06:43:38.347Z,3.19
2018-01-26T06:44:09.963Z,3.19
2018-01-26T06:44:41.610Z,3.19
2018-01-26T06:45:13.231Z,3.19
2018-01-26T06:45:44.978Z,3.19
2018-01-26T06:46:16.580Z,3.19
2018-01-26T06:46:48.230Z,3.19
2018-01-26T06:47:19.838Z,3.19
2018-01-26T06:47:51.453Z,3.19
2018-01-26T06:48:23.080Z,3.19
2018-01-26T06:48:54.704Z,3.19
2018-01-26T06:49:26.363Z,3.19
2018-01-26T06:49:57.957Z,3.19
2018-01-26T06:50:29.591Z,3.19
2018-01-26T06:51:01.204Z,3.19
2018-01-26T06:51:32.835Z,3.19
2018-01-26T06:52:04.434Z,3.19
2018-01-26T06:52:36.047Z,3.19
2018-01-26T06:53:07.687Z,3.19
2018-01-26T06:53:39.294Z,3.19
2018-01-26T06:54:10.911Z,3.19
2018-01-26T06:54:42.540Z,3.19
2018-01-26T06:55:14.145Z,3.19
2018-01-26T06:55:45.773Z,3.19
2018-01-26T06:56:17.429Z,3.19
2018-01-26T06:56:49.057Z,3.19
2018-01-26T06:57:20.677Z,3.19
2018-01-26T06:57:52.298Z,3.19
2018-01-26T06:58:23.926Z,3.19
2018-01-26T06:58:55.553Z,3.19
2018-01-26T06:59:27.185Z,3.19
2018-01-26T06:59:58.799Z,3.19
2018-01-26T07:00:30.419Z,3.19
2018-01-26T07:01:02.073Z,3.19
2018-01-26T07:01:33.710Z,3.19
2018-01-26T07:02:05.322Z,3.19
2018-01-26T07:02:36.954Z,3.19
2018-01-26T07:03:08.576Z,3.19
2018-01-26T07:03:40.188Z,3.19
2018-01-26T07:04:11.803Z,3.19
2018-01-26T07:04:43.431Z,3.19
2018-01-26T07:05:15.047Z,3.19
2018-01-26T07:05:46.685Z,3.19
2018-01-26T07:06:18.323Z,3.19
2018-01-26T07:06:49.950Z,3.19
2018-01-26T07:07:21.567Z,3.19
2018-01-26T07:07:53.185Z,3.19
2018-01-26T07:08:24.803Z,3.19
2018-01-26T07:08:56.417Z,3.19
2018-01-26T07:09:28.025Z,3.19
2018-01-26T07:09:59.650Z,3.19
2018-01-26T07:10:31.269Z,3.19
2018-01-26T07:11:02.894Z,3.19